sensor_id;sensor_type;location;lat;lon;timestamp;temperature;humidity
10231;DHT22;62604;49.432;8.680;2024-02-21T01:20:17;8.20;99.90
10231;DHT22;62604;49.432;8.680;2024-02-21T01:22:51;8.20;99.90
10231;DHT22;62604;49.432;8.680;2024-02-21T06:17:22;7.00;99.90
10231;DHT22;62604;49.432;8.680;2024-02-21T06:19:49;7.00;99.90
10231;DHT22;62604;49.432;8.680;2024-02-21T06:22:19;7.00;99.90
10231;DHT22;62604;49.432;8.680;2024-02-21T06:25:07;7.00;99.90
10231;DHT22;62604;49.432;8.680;2024-02-21T06:27:38;7.00;99.90
10231;DHT22;62604;49.432;8.680;2024-02-21T06:30:26;7.00;99.90
10231;DHT22;62604;49.432;8.680;2024-02-21T06:32:55;7.00;99.90
10231;DHT22;62604;49.432;8.680;2024-02-21T06:36:22;7.00;99.90
10231;DHT22;62604;49.432;8.680;2024-02-21T06:38:43;7.00;99.90
10231;DHT22;62604;49.432;8.680;2024-02-21T06:44:17;7.00;99.90
10231;DHT22;62604;49.432;8.680;2024-02-21T06:58:21;7.10;99.90
10231;DHT22;62604;49.432;8.680;2024-02-21T07:03:34;7.20;99.90
10231;DHT22;62604;49.432;8.680;2024-02-21T07:06:04;7.20;99.90
10231;DHT22;62604;49.432;8.680;2024-02-21T07:08:31;7.20;99.90
10231;DHT22;62604;49.432;8.680;2024-02-21T07:11:18;7.20;99.90
10231;DHT22;62604;49.432;8.680;2024-02-21T07:13:48;7.30;99.90
10231;DHT22;62604;49.432;8.680;2024-02-21T07:16:15;7.30;99.90
10231;DHT22;62604;49.432;8.680;2024-02-21T07:18:45;7.30;99.90
10231;DHT22;62604;49.432;8.680;2024-02-21T07:21:13;7.40;99.90
10231;DHT22;62604;49.432;8.680;2024-02-21T07:23:41;7.40;99.90
10231;DHT22;62604;49.432;8.680;2024-02-21T07:26:09;7.40;99.90
10231;DHT22;62604;49.432;8.680;2024-02-21T07:28:36;7.50;99.90
10231;DHT22;62604;49.432;8.680;2024-02-21T07:31:11;7.60;99.90
10231;DHT22;62604;49.432;8.680;2024-02-21T07:33:41;7.70;99.90
10231;DHT22;62604;49.432;8.680;2024-02-21T07:36:14;7.70;99.90
10231;DHT22;62604;49.432;8.680;2024-02-21T07:38:42;7.90;99.90
10231;DHT22;62604;49.432;8.680;2024-02-21T07:41:12;8.00;99.90
10231;DHT22;62604;49.432;8.680;2024-02-21T07:43:39;8.30;99.30
10231;DHT22;62604;49.432;8.680;2024-02-21T07:46:10;8.40;98.50
10231;DHT22;62604;49.432;8.680;2024-02-21T07:48:39;8.60;98.10
10231;DHT22;62604;49.432;8.680;2024-02-21T07:51:06;8.70;97.80
10231;DHT22;62604;49.432;8.680;2024-02-21T07:53:35;8.90;96.90
10231;DHT22;62604;49.432;8.680;2024-02-21T07:56:10;9.10;96.10
10231;DHT22;62604;49.432;8.680;2024-02-21T07:58:37;9.10;95.60
10231;DHT22;62604;49.432;8.680;2024-02-21T08:01:04;9.10;95.40
10231;DHT22;62604;49.432;8.680;2024-02-21T08:03:33;9.00;95.40
10231;DHT22;62604;49.432;8.680;2024-02-21T08:06:00;9.00;95.20
10231;DHT22;62604;49.432;8.680;2024-02-21T08:08:35;8.90;95.40
10231;DHT22;62604;49.432;8.680;2024-02-21T08:11:05;8.90;95.50
10231;DHT22;62604;49.432;8.680;2024-02-21T08:13:35;8.90;95.60
10231;DHT22;62604;49.432;8.680;2024-02-21T08:16:05;8.90;95.90
10231;DHT22;62604;49.432;8.680;2024-02-21T08:18:34;9.00;96.10
10231;DHT22;62604;49.432;8.680;2024-02-21T08:21:04;9.00;95.70
10231;DHT22;62604;49.432;8.680;2024-02-21T08:23:32;9.10;95.50
10231;DHT22;62604;49.432;8.680;2024-02-21T08:26:03;9.10;95.70
10231;DHT22;62604;49.432;8.680;2024-02-21T08:28:30;9.10;95.20
10231;DHT22;62604;49.432;8.680;2024-02-21T08:30:57;9.10;95.40
10231;DHT22;62604;49.432;8.680;2024-02-21T08:33:27;9.10;94.90
10231;DHT22;62604;49.432;8.680;2024-02-21T08:35:55;9.00;95.00
10231;DHT22;62604;49.432;8.680;2024-02-21T08:38:25;9.00;95.70
10231;DHT22;62604;49.432;8.680;2024-02-21T08:40:52;8.90;94.80
10231;DHT22;62604;49.432;8.680;2024-02-21T08:43:21;8.80;95.00
10231;DHT22;62604;49.432;8.680;2024-02-21T08:45:48;8.70;95.50
10231;DHT22;62604;49.432;8.680;2024-02-21T08:48:18;8.60;96.10
10231;DHT22;62604;49.432;8.680;2024-02-21T08:50:45;8.60;96.10
10231;DHT22;62604;49.432;8.680;2024-02-21T08:53:15;8.60;96.00
10231;DHT22;62604;49.432;8.680;2024-02-21T08:55:43;8.60;96.10
10231;DHT22;62604;49.432;8.680;2024-02-21T08:58:14;8.70;96.30
10231;DHT22;62604;49.432;8.680;2024-02-21T09:00:47;8.70;96.70
10231;DHT22;62604;49.432;8.680;2024-02-21T09:05:05;8.80;96.50
10231;DHT22;62604;49.432;8.680;2024-02-21T09:06:45;8.90;96.00
10231;DHT22;62604;49.432;8.680;2024-02-21T09:09:18;9.00;95.80
10231;DHT22;62604;49.432;8.680;2024-02-21T09:11:46;9.10;95.80
10231;DHT22;62604;49.432;8.680;2024-02-21T09:14:13;9.20;95.10
10231;DHT22;62604;49.432;8.680;2024-02-21T09:16:43;9.30;94.80
10231;DHT22;62604;49.432;8.680;2024-02-21T09:19:11;9.30;94.40
10231;DHT22;62604;49.432;8.680;2024-02-21T09:21:38;9.30;94.20
10231;DHT22;62604;49.432;8.680;2024-02-21T09:24:06;9.40;94.50
10231;DHT22;62604;49.432;8.680;2024-02-21T09:26:33;9.50;93.90
10231;DHT22;62604;49.432;8.680;2024-02-21T09:29:00;9.70;94.00
10231;DHT22;62604;49.432;8.680;2024-02-21T09:31:30;10.00;93.20
10231;DHT22;62604;49.432;8.680;2024-02-21T09:34:05;10.20;91.70
10231;DHT22;62604;49.432;8.680;2024-02-21T09:36:32;10.30;91.60
10231;DHT22;62604;49.432;8.680;2024-02-21T09:38:59;10.60;91.10
10231;DHT22;62604;49.432;8.680;2024-02-21T09:41:28;10.80;90.60
10231;DHT22;62604;49.432;8.680;2024-02-21T09:43:57;11.10;90.30
10231;DHT22;62604;49.432;8.680;2024-02-21T09:46:37;11.20;88.20
10231;DHT22;62604;49.432;8.680;2024-02-21T09:49:16;11.30;87.30
10231;DHT22;62604;49.432;8.680;2024-02-21T09:51:48;11.50;86.40
10231;DHT22;62604;49.432;8.680;2024-02-21T09:54:19;11.30;86.30
10231;DHT22;62604;49.432;8.680;2024-02-21T09:56:46;11.30;86.40
10231;DHT22;62604;49.432;8.680;2024-02-21T09:59:14;11.20;85.40
10231;DHT22;62604;49.432;8.680;2024-02-21T10:01:42;11.10;86.00
10231;DHT22;62604;49.432;8.680;2024-02-21T10:04:11;11.10;86.50
10231;DHT22;62604;49.432;8.680;2024-02-21T10:06:38;11.20;87.90
10231;DHT22;62604;49.432;8.680;2024-02-21T10:09:06;11.30;87.30
10231;DHT22;62604;49.432;8.680;2024-02-21T10:11:33;11.40;85.10
10231;DHT22;62604;49.432;8.680;2024-02-21T10:14:05;11.50;86.30
10231;DHT22;62604;49.432;8.680;2024-02-21T10:16:32;11.70;86.10
10231;DHT22;62604;49.432;8.680;2024-02-21T10:19:00;11.90;85.20
10231;DHT22;62604;49.432;8.680;2024-02-21T10:21:30;12.10;83.00
10231;DHT22;62604;49.432;8.680;2024-02-21T10:23:57;12.20;82.10
10231;DHT22;62604;49.432;8.680;2024-02-21T10:26:24;12.30;82.20
10231;DHT22;62604;49.432;8.680;2024-02-21T10:28:51;12.50;81.90
10231;DHT22;62604;49.432;8.680;2024-02-21T10:31:24;12.60;80.40
10231;DHT22;62604;49.432;8.680;2024-02-21T10:33:56;12.80;80.90
10231;DHT22;62604;49.432;8.680;2024-02-21T10:36:23;12.90;80.00
10231;DHT22;62604;49.432;8.680;2024-02-21T10:38:52;13.00;78.80
10231;DHT22;62604;49.432;8.680;2024-02-21T10:41:20;13.00;79.10
10231;DHT22;62604;49.432;8.680;2024-02-21T10:43:50;13.10;80.00
10231;DHT22;62604;49.432;8.680;2024-02-21T10:46:20;13.20;78.10
10231;DHT22;62604;49.432;8.680;2024-02-21T10:48:48;13.20;76.80
10231;DHT22;62604;49.432;8.680;2024-02-21T10:51:19;13.10;76.70
10231;DHT22;62604;49.432;8.680;2024-02-21T10:53:57;13.20;77.40
10231;DHT22;62604;49.432;8.680;2024-02-21T10:56:29;13.20;77.20
10231;DHT22;62604;49.432;8.680;2024-02-21T10:58:58;13.20;75.60
10231;DHT22;62604;49.432;8.680;2024-02-21T11:01:25;13.20;75.90
10231;DHT22;62604;49.432;8.680;2024-02-21T11:03:56;13.10;76.30
10231;DHT22;62604;49.432;8.680;2024-02-21T11:06:25;13.10;75.50
10231;DHT22;62604;49.432;8.680;2024-02-21T11:09:02;13.10;75.30
10231;DHT22;62604;49.432;8.680;2024-02-21T11:11:33;13.00;74.70
10231;DHT22;62604;49.432;8.680;2024-02-21T11:14:07;12.90;74.60
10231;DHT22;62604;49.432;8.680;2024-02-21T11:16:38;12.90;74.80
10231;DHT22;62604;49.432;8.680;2024-02-21T11:19:07;13.00;74.70
10231;DHT22;62604;49.432;8.680;2024-02-21T11:21:35;12.90;73.70
10231;DHT22;62604;49.432;8.680;2024-02-21T11:24:05;13.00;74.60
10231;DHT22;62604;49.432;8.680;2024-02-21T11:26:32;12.80;73.00
10231;DHT22;62604;49.432;8.680;2024-02-21T11:29:00;12.70;74.60
10231;DHT22;62604;49.432;8.680;2024-02-21T11:31:38;12.70;73.70
10231;DHT22;62604;49.432;8.680;2024-02-21T11:34:09;12.50;72.90
10231;DHT22;62604;49.432;8.680;2024-02-21T11:36:39;12.40;72.80
10231;DHT22;62604;49.432;8.680;2024-02-21T11:39:18;12.40;74.20
10231;DHT22;62604;49.432;8.680;2024-02-21T11:41:47;12.40;74.20
10231;DHT22;62604;49.432;8.680;2024-02-21T11:44:14;12.40;74.50
10231;DHT22;62604;49.432;8.680;2024-02-21T11:46:41;12.40;74.90
10231;DHT22;62604;49.432;8.680;2024-02-21T11:49:10;12.50;74.50
10231;DHT22;62604;49.432;8.680;2024-02-21T11:51:37;12.60;72.70
10231;DHT22;62604;49.432;8.680;2024-02-21T11:54:06;12.60;72.50
10231;DHT22;62604;49.432;8.680;2024-02-21T11:56:35;12.60;72.40
10231;DHT22;62604;49.432;8.680;2024-02-21T11:59:02;12.80;73.20
10231;DHT22;62604;49.432;8.680;2024-02-21T12:01:29;12.80;72.30
10231;DHT22;62604;49.432;8.680;2024-02-21T12:03:56;12.90;71.70
10231;DHT22;62604;49.432;8.680;2024-02-21T12:06:23;12.90;69.90
10231;DHT22;62604;49.432;8.680;2024-02-21T12:08:50;12.80;71.80
10231;DHT22;62604;49.432;8.680;2024-02-21T12:11:22;12.80;70.70
10231;DHT22;62604;49.432;8.680;2024-02-21T12:14:00;12.90;71.20
10231;DHT22;62604;49.432;8.680;2024-02-21T12:16:29;12.90;71.30
10231;DHT22;62604;49.432;8.680;2024-02-21T12:18:56;12.90;70.90
10231;DHT22;62604;49.432;8.680;2024-02-21T12:21:26;12.80;69.70
10231;DHT22;62604;49.432;8.680;2024-02-21T12:23:54;12.70;70.40
10231;DHT22;62604;49.432;8.680;2024-02-21T12:26:22;12.80;70.30
10231;DHT22;62604;49.432;8.680;2024-02-21T12:28:49;12.70;70.80
10231;DHT22;62604;49.432;8.680;2024-02-21T12:31:17;12.80;71.70
10231;DHT22;62604;49.432;8.680;2024-02-21T12:33:44;12.60;69.10
10231;DHT22;62604;49.432;8.680;2024-02-21T12:36:11;12.60;70.20
10231;DHT22;62604;49.432;8.680;2024-02-21T12:38:38;12.60;71.20
10231;DHT22;62604;49.432;8.680;2024-02-21T12:41:06;12.80;71.80
10231;DHT22;62604;49.432;8.680;2024-02-21T12:43:33;12.90;71.30
10231;DHT22;62604;49.432;8.680;2024-02-21T12:46:01;12.90;69.70
10231;DHT22;62604;49.432;8.680;2024-02-21T12:48:30;12.90;69.60
10231;DHT22;62604;49.432;8.680;2024-02-21T12:50:58;12.90;69.50
10231;DHT22;62604;49.432;8.680;2024-02-21T12:53:25;12.70;68.10
10231;DHT22;62604;49.432;8.680;2024-02-21T12:55:52;12.60;69.80
10231;DHT22;62604;49.432;8.680;2024-02-21T12:58:19;12.50;69.80
10231;DHT22;62604;49.432;8.680;2024-02-21T13:00:47;12.50;70.00
10231;DHT22;62604;49.432;8.680;2024-02-21T13:03:14;12.50;68.70
10231;DHT22;62604;49.432;8.680;2024-02-21T13:05:43;12.40;69.40
10231;DHT22;62604;49.432;8.680;2024-02-21T13:08:10;12.50;69.60
10231;DHT22;62604;49.432;8.680;2024-02-21T13:10:37;12.50;69.10
10231;DHT22;62604;49.432;8.680;2024-02-21T13:13:04;12.60;69.90
10231;DHT22;62604;49.432;8.680;2024-02-21T13:15:32;12.60;68.40
10231;DHT22;62604;49.432;8.680;2024-02-21T13:17:59;12.60;67.70
10231;DHT22;62604;49.432;8.680;2024-02-21T13:20:26;12.60;67.50
10231;DHT22;62604;49.432;8.680;2024-02-21T13:22:56;12.60;68.00
10231;DHT22;62604;49.432;8.680;2024-02-21T13:25:23;12.50;66.80
10231;DHT22;62604;49.432;8.680;2024-02-21T13:27:50;12.50;67.40
10231;DHT22;62604;49.432;8.680;2024-02-21T13:30:17;12.60;67.30
10231;DHT22;62604;49.432;8.680;2024-02-21T13:32:44;12.60;67.50
10231;DHT22;62604;49.432;8.680;2024-02-21T13:35:13;12.50;66.50
10231;DHT22;62604;49.432;8.680;2024-02-21T13:37:40;12.60;66.50
10231;DHT22;62604;49.432;8.680;2024-02-21T13:40:09;12.50;66.70
10231;DHT22;62604;49.432;8.680;2024-02-21T13:42:37;12.60;67.20
10231;DHT22;62604;49.432;8.680;2024-02-21T13:45:05;12.50;66.20
10231;DHT22;62604;49.432;8.680;2024-02-21T13:47:32;12.50;66.70
10231;DHT22;62604;49.432;8.680;2024-02-21T13:49:59;12.40;66.40
10231;DHT22;62604;49.432;8.680;2024-02-21T13:52:26;12.40;66.60
10231;DHT22;62604;49.432;8.680;2024-02-21T13:54:53;12.40;66.70
10231;DHT22;62604;49.432;8.680;2024-02-21T13:57:22;12.30;66.50
10231;DHT22;62604;49.432;8.680;2024-02-21T13:59:49;12.30;66.50
10231;DHT22;62604;49.432;8.680;2024-02-21T14:02:18;12.30;67.00
10231;DHT22;62604;49.432;8.680;2024-02-21T14:04:45;12.30;66.80
10231;DHT22;62604;49.432;8.680;2024-02-21T14:07:12;12.30;66.70
10231;DHT22;62604;49.432;8.680;2024-02-21T14:09:39;12.30;66.10
10231;DHT22;62604;49.432;8.680;2024-02-21T14:12:07;12.30;65.70
10231;DHT22;62604;49.432;8.680;2024-02-21T14:14:36;12.30;67.10
10231;DHT22;62604;49.432;8.680;2024-02-21T14:17:03;12.30;64.70
10231;DHT22;62604;49.432;8.680;2024-02-21T14:19:31;12.30;64.60
10231;DHT22;62604;49.432;8.680;2024-02-21T14:21:58;12.30;66.20
10231;DHT22;62604;49.432;8.680;2024-02-21T14:24:25;12.30;66.00
10231;DHT22;62604;49.432;8.680;2024-02-21T14:26:53;12.40;65.00
10231;DHT22;62604;49.432;8.680;2024-02-21T14:29:20;12.30;62.70
10231;DHT22;62604;49.432;8.680;2024-02-21T14:31:49;12.30;61.20
10231;DHT22;62604;49.432;8.680;2024-02-21T14:34:16;12.30;58.20
10231;DHT22;62604;49.432;8.680;2024-02-21T14:36:43;12.20;38.50
10231;DHT22;62604;49.432;8.680;2024-02-21T14:39:10;12.20;1.00
10231;DHT22;62604;49.432;8.680;2024-02-21T14:41:37;12.10;1.00
10231;DHT22;62604;49.432;8.680;2024-02-21T14:44:05;12.10;1.00
10231;DHT22;62604;49.432;8.680;2024-02-21T14:46:36;12.10;1.00
10231;DHT22;62604;49.432;8.680;2024-02-21T14:49:05;12.00;1.00
10231;DHT22;62604;49.432;8.680;2024-02-21T14:51:32;11.90;1.00
10231;DHT22;62604;49.432;8.680;2024-02-21T14:53:59;11.90;1.00
10231;DHT22;62604;49.432;8.680;2024-02-21T14:56:26;11.80;1.00
10231;DHT22;62604;49.432;8.680;2024-02-21T14:58:53;11.80;1.00
10231;DHT22;62604;49.432;8.680;2024-02-21T15:01:20;11.80;1.00
10231;DHT22;62604;49.432;8.680;2024-02-21T15:03:47;11.90;1.00
10231;DHT22;62604;49.432;8.680;2024-02-21T15:06:16;11.90;1.00
10231;DHT22;62604;49.432;8.680;2024-02-21T15:08:43;11.80;1.00
10231;DHT22;62604;49.432;8.680;2024-02-21T15:11:10;11.70;1.00
10231;DHT22;62604;49.432;8.680;2024-02-21T15:13:37;11.70;1.00
10231;DHT22;62604;49.432;8.680;2024-02-21T15:16:05;11.70;1.00
10231;DHT22;62604;49.432;8.680;2024-02-21T15:18:32;11.70;1.00
10231;DHT22;62604;49.432;8.680;2024-02-21T15:21:01;11.70;1.00
10231;DHT22;62604;49.432;8.680;2024-02-21T15:23:30;11.60;1.00
10231;DHT22;62604;49.432;8.680;2024-02-21T15:25:57;11.60;1.00
10231;DHT22;62604;49.432;8.680;2024-02-21T15:28:25;11.60;1.00
10231;DHT22;62604;49.432;8.680;2024-02-21T15:30:54;11.60;1.00
10231;DHT22;62604;49.432;8.680;2024-02-21T15:33:21;11.50;1.00
10231;DHT22;62604;49.432;8.680;2024-02-21T15:35:48;11.50;1.00
10231;DHT22;62604;49.432;8.680;2024-02-21T15:38:16;11.50;1.00
10231;DHT22;62604;49.432;8.680;2024-02-21T15:40:44;11.50;1.00
10231;DHT22;62604;49.432;8.680;2024-02-21T15:43:11;11.40;1.00
10231;DHT22;62604;49.432;8.680;2024-02-21T15:45:38;11.40;1.00
10231;DHT22;62604;49.432;8.680;2024-02-21T15:48:06;11.30;1.00
10231;DHT22;62604;49.432;8.680;2024-02-21T15:50:33;11.30;1.00
10231;DHT22;62604;49.432;8.680;2024-02-21T15:53:00;11.30;1.00
10231;DHT22;62604;49.432;8.680;2024-02-21T15:55:28;11.30;1.00
10231;DHT22;62604;49.432;8.680;2024-02-21T15:57:57;11.30;1.00
10231;DHT22;62604;49.432;8.680;2024-02-21T16:00:24;11.30;1.00
10231;DHT22;62604;49.432;8.680;2024-02-21T16:02:51;11.30;1.00
10231;DHT22;62604;49.432;8.680;2024-02-21T16:05:18;11.30;1.00
10231;DHT22;62604;49.432;8.680;2024-02-21T16:07:45;11.30;1.00
10231;DHT22;62604;49.432;8.680;2024-02-21T16:10:12;11.20;1.00
10231;DHT22;62604;49.432;8.680;2024-02-21T16:12:39;11.20;1.00
10231;DHT22;62604;49.432;8.680;2024-02-21T16:15:09;11.20;1.00
10231;DHT22;62604;49.432;8.680;2024-02-21T16:17:37;11.20;1.00
10231;DHT22;62604;49.432;8.680;2024-02-21T16:20:07;11.20;1.00
10231;DHT22;62604;49.432;8.680;2024-02-21T16:22:36;11.20;1.00
10231;DHT22;62604;49.432;8.680;2024-02-21T16:25:04;11.10;1.00
10231;DHT22;62604;49.432;8.680;2024-02-21T16:27:31;11.10;1.00
10231;DHT22;62604;49.432;8.680;2024-02-21T16:29:58;11.10;1.00
10231;DHT22;62604;49.432;8.680;2024-02-21T16:32:27;11.00;1.00
10231;DHT22;62604;49.432;8.680;2024-02-21T16:34:54;11.00;1.00
10231;DHT22;62604;49.432;8.680;2024-02-21T16:37:21;11.00;1.00
10231;DHT22;62604;49.432;8.680;2024-02-21T16:39:48;10.90;1.00
10231;DHT22;62604;49.432;8.680;2024-02-21T16:42:15;11.00;1.00
10231;DHT22;62604;49.432;8.680;2024-02-21T16:44:42;10.90;1.00
10231;DHT22;62604;49.432;8.680;2024-02-21T16:47:12;10.90;1.00
10231;DHT22;62604;49.432;8.680;2024-02-21T16:49:41;10.90;1.00
10231;DHT22;62604;49.432;8.680;2024-02-21T16:52:08;10.80;1.00
10231;DHT22;62604;49.432;8.680;2024-02-21T16:54:35;10.80;1.00
10231;DHT22;62604;49.432;8.680;2024-02-21T16:57:02;10.80;1.00
10231;DHT22;62604;49.432;8.680;2024-02-21T16:59:30;10.80;1.00
10231;DHT22;62604;49.432;8.680;2024-02-21T17:01:57;10.80;1.00
10231;DHT22;62604;49.432;8.680;2024-02-21T17:04:27;10.80;1.00
10231;DHT22;62604;49.432;8.680;2024-02-21T17:06:56;10.70;1.00
10231;DHT22;62604;49.432;8.680;2024-02-21T17:09:23;10.70;1.00
10231;DHT22;62604;49.432;8.680;2024-02-21T17:11:50;10.70;1.00
10231;DHT22;62604;49.432;8.680;2024-02-21T17:14:19;10.60;1.00
10231;DHT22;62604;49.432;8.680;2024-02-21T17:16:47;10.70;1.00
10231;DHT22;62604;49.432;8.680;2024-02-21T17:19:15;10.60;1.00
10231;DHT22;62604;49.432;8.680;2024-02-21T17:21:42;10.60;1.00
10231;DHT22;62604;49.432;8.680;2024-02-21T17:24:11;10.60;1.00
10231;DHT22;62604;49.432;8.680;2024-02-21T17:26:38;10.60;1.00
10231;DHT22;62604;49.432;8.680;2024-02-21T17:29:05;10.60;1.00
10231;DHT22;62604;49.432;8.680;2024-02-21T17:31:32;10.60;1.00
10231;DHT22;62604;49.432;8.680;2024-02-21T17:33:59;10.60;1.00
10231;DHT22;62604;49.432;8.680;2024-02-21T17:36:26;10.60;1.00
10231;DHT22;62604;49.432;8.680;2024-02-21T17:38:53;10.50;1.00
10231;DHT22;62604;49.432;8.680;2024-02-21T17:41:22;10.60;1.00
10231;DHT22;62604;49.432;8.680;2024-02-21T17:43:49;10.60;1.00
10231;DHT22;62604;49.432;8.680;2024-02-21T17:46:17;10.60;1.00
10231;DHT22;62604;49.432;8.680;2024-02-21T17:48:44;10.60;1.00
10231;DHT22;62604;49.432;8.680;2024-02-21T17:51:12;10.60;1.00
10231;DHT22;62604;49.432;8.680;2024-02-21T17:53:39;10.50;1.00
10231;DHT22;62604;49.432;8.680;2024-02-21T17:56:07;10.60;1.00
10231;DHT22;62604;49.432;8.680;2024-02-21T17:58:35;10.60;1.00
10231;DHT22;62604;49.432;8.680;2024-02-21T18:01:03;10.50;1.00
10231;DHT22;62604;49.432;8.680;2024-02-21T18:03:30;10.50;1.00
10231;DHT22;62604;49.432;8.680;2024-02-21T18:05:58;10.50;1.00
10231;DHT22;62604;49.432;8.680;2024-02-21T18:08:26;10.50;1.00
10231;DHT22;62604;49.432;8.680;2024-02-21T18:10:53;10.50;1.00
10231;DHT22;62604;49.432;8.680;2024-02-21T18:13:21;10.50;1.00
10231;DHT22;62604;49.432;8.680;2024-02-21T18:15:50;10.40;1.00
10231;DHT22;62604;49.432;8.680;2024-02-21T18:18:17;10.40;1.00
10231;DHT22;62604;49.432;8.680;2024-02-21T18:20:44;10.40;1.00
10231;DHT22;62604;49.432;8.680;2024-02-21T18:23:11;10.30;1.00
10231;DHT22;62604;49.432;8.680;2024-02-21T18:25:38;10.40;1.00
10231;DHT22;62604;49.432;8.680;2024-02-21T18:28:08;10.40;1.00
10231;DHT22;62604;49.432;8.680;2024-02-21T18:30:35;10.40;1.00
10231;DHT22;62604;49.432;8.680;2024-02-21T18:33:04;10.40;1.00
10231;DHT22;62604;49.432;8.680;2024-02-21T18:35:31;10.40;1.00
10231;DHT22;62604;49.432;8.680;2024-02-21T18:37:59;10.30;1.00
10231;DHT22;62604;49.432;8.680;2024-02-21T18:40:27;10.40;1.00
10231;DHT22;62604;49.432;8.680;2024-02-21T18:42:54;10.40;1.00
10231;DHT22;62604;49.432;8.680;2024-02-21T18:45:23;10.40;1.00
10231;DHT22;62604;49.432;8.680;2024-02-21T18:47:50;10.50;1.00
10231;DHT22;62604;49.432;8.680;2024-02-21T18:50:19;10.50;1.00
10231;DHT22;62604;49.432;8.680;2024-02-21T18:52:46;10.50;1.00
10231;DHT22;62604;49.432;8.680;2024-02-21T18:55:18;10.60;1.00
10231;DHT22;62604;49.432;8.680;2024-02-21T18:57:45;10.70;1.00
10231;DHT22;62604;49.432;8.680;2024-02-21T19:00:13;10.70;1.00
10231;DHT22;62604;49.432;8.680;2024-02-21T19:02:45;10.80;1.00
10231;DHT22;62604;49.432;8.680;2024-02-21T19:05:13;10.80;1.00
10231;DHT22;62604;49.432;8.680;2024-02-21T19:07:41;10.90;1.00
10231;DHT22;62604;49.432;8.680;2024-02-21T19:10:09;10.90;1.00
10231;DHT22;62604;49.432;8.680;2024-02-21T19:12:38;10.90;1.00
10231;DHT22;62604;49.432;8.680;2024-02-21T19:15:05;10.90;1.00
10231;DHT22;62604;49.432;8.680;2024-02-21T19:17:34;10.90;1.00
10231;DHT22;62604;49.432;8.680;2024-02-21T19:20:01;10.90;1.00
10231;DHT22;62604;49.432;8.680;2024-02-21T19:22:29;10.90;1.00
10231;DHT22;62604;49.432;8.680;2024-02-21T19:24:59;10.90;1.00
10231;DHT22;62604;49.432;8.680;2024-02-21T19:27:32;10.90;1.00
10231;DHT22;62604;49.432;8.680;2024-02-21T19:29:59;10.90;1.00
10231;DHT22;62604;49.432;8.680;2024-02-21T19:32:27;10.90;1.00
10231;DHT22;62604;49.432;8.680;2024-02-21T19:34:54;10.90;1.00
10231;DHT22;62604;49.432;8.680;2024-02-21T19:37:21;10.90;1.00
10231;DHT22;62604;49.432;8.680;2024-02-21T19:39:49;10.90;1.00
10231;DHT22;62604;49.432;8.680;2024-02-21T19:42:17;11.00;1.00
10231;DHT22;62604;49.432;8.680;2024-02-21T19:44:44;11.00;1.00
10231;DHT22;62604;49.432;8.680;2024-02-21T19:47:12;11.00;1.00
10231;DHT22;62604;49.432;8.680;2024-02-21T19:49:40;11.00;99.90
10231;DHT22;62604;49.432;8.680;2024-02-21T19:52:07;11.00;1.00
10231;DHT22;62604;49.432;8.680;2024-02-21T19:54:34;11.00;99.90
10231;DHT22;62604;49.432;8.680;2024-02-21T19:57:02;11.00;99.90
10231;DHT22;62604;49.432;8.680;2024-02-21T19:59:30;11.10;99.90
10231;DHT22;62604;49.432;8.680;2024-02-21T20:01:58;11.10;99.90
10231;DHT22;62604;49.432;8.680;2024-02-21T20:04:25;11.10;99.90
10231;DHT22;62604;49.432;8.680;2024-02-21T20:06:53;11.10;99.90
10231;DHT22;62604;49.432;8.680;2024-02-21T20:09:20;11.10;99.90
10231;DHT22;62604;49.432;8.680;2024-02-21T20:11:47;11.20;99.90
10231;DHT22;62604;49.432;8.680;2024-02-21T20:14:15;11.20;99.90
10231;DHT22;62604;49.432;8.680;2024-02-21T20:16:45;11.20;99.90
10231;DHT22;62604;49.432;8.680;2024-02-21T20:19:14;11.20;99.90
10231;DHT22;62604;49.432;8.680;2024-02-21T20:21:42;11.30;99.90
10231;DHT22;62604;49.432;8.680;2024-02-21T20:24:10;11.30;99.90
10231;DHT22;62604;49.432;8.680;2024-02-21T20:26:38;11.30;99.90
10231;DHT22;62604;49.432;8.680;2024-02-21T20:29:10;11.30;99.90
10231;DHT22;62604;49.432;8.680;2024-02-21T20:31:40;11.30;99.90
10231;DHT22;62604;49.432;8.680;2024-02-21T20:34:12;11.40;99.90
10231;DHT22;62604;49.432;8.680;2024-02-21T20:36:41;11.40;99.90
10231;DHT22;62604;49.432;8.680;2024-02-21T20:39:09;11.50;99.90
10231;DHT22;62604;49.432;8.680;2024-02-21T20:41:37;11.60;99.90
10231;DHT22;62604;49.432;8.680;2024-02-21T20:44:07;11.60;99.90
10231;DHT22;62604;49.432;8.680;2024-02-21T20:46:35;11.60;99.90
10231;DHT22;62604;49.432;8.680;2024-02-21T20:49:03;11.60;99.90
10231;DHT22;62604;49.432;8.680;2024-02-21T20:51:34;11.60;99.90
10231;DHT22;62604;49.432;8.680;2024-02-21T20:54:01;11.60;99.90
10231;DHT22;62604;49.432;8.680;2024-02-21T20:56:29;11.60;99.90
10231;DHT22;62604;49.432;8.680;2024-02-21T20:58:56;11.50;99.90
10231;DHT22;62604;49.432;8.680;2024-02-21T21:01:23;11.60;99.90
10231;DHT22;62604;49.432;8.680;2024-02-21T21:03:50;11.60;99.90
10231;DHT22;62604;49.432;8.680;2024-02-21T21:06:18;11.60;99.90
10231;DHT22;62604;49.432;8.680;2024-02-21T21:08:47;11.60;99.90
10231;DHT22;62604;49.432;8.680;2024-02-21T21:11:14;11.60;99.90
10231;DHT22;62604;49.432;8.680;2024-02-21T21:13:41;11.50;99.90
10231;DHT22;62604;49.432;8.680;2024-02-21T21:16:09;11.50;99.90
10231;DHT22;62604;49.432;8.680;2024-02-21T21:18:36;11.50;99.90
10231;DHT22;62604;49.432;8.680;2024-02-21T21:21:03;11.50;99.90
10231;DHT22;62604;49.432;8.680;2024-02-21T21:23:31;11.50;99.90
10231;DHT22;62604;49.432;8.680;2024-02-21T21:26:00;11.50;99.90
10231;DHT22;62604;49.432;8.680;2024-02-21T21:28:29;11.50;99.90
10231;DHT22;62604;49.432;8.680;2024-02-21T21:30:56;11.40;99.90
10231;DHT22;62604;49.432;8.680;2024-02-21T21:33:23;11.40;99.90
10231;DHT22;62604;49.432;8.680;2024-02-21T21:35:51;11.40;99.90
10231;DHT22;62604;49.432;8.680;2024-02-21T21:38:18;11.40;99.90
10231;DHT22;62604;49.432;8.680;2024-02-21T21:40:46;11.30;99.90
10231;DHT22;62604;49.432;8.680;2024-02-21T21:43:15;11.30;1.00
10231;DHT22;62604;49.432;8.680;2024-02-21T21:45:43;11.20;1.00
10231;DHT22;62604;49.432;8.680;2024-02-21T21:48:10;11.20;1.00
10231;DHT22;62604;49.432;8.680;2024-02-21T21:50:38;11.10;1.00
10231;DHT22;62604;49.432;8.680;2024-02-21T21:53:05;11.10;1.00
10231;DHT22;62604;49.432;8.680;2024-02-21T21:55:32;11.00;1.00
10231;DHT22;62604;49.432;8.680;2024-02-21T21:58:00;11.00;1.00
10231;DHT22;62604;49.432;8.680;2024-02-21T22:00:28;10.90;1.00
10231;DHT22;62604;49.432;8.680;2024-02-21T22:02:56;10.90;1.00
10231;DHT22;62604;49.432;8.680;2024-02-21T22:05:23;10.90;1.00
10231;DHT22;62604;49.432;8.680;2024-02-21T22:07:52;10.80;1.00
10231;DHT22;62604;49.432;8.680;2024-02-21T22:10:19;10.80;1.00
10231;DHT22;62604;49.432;8.680;2024-02-21T22:12:46;10.80;1.00
10231;DHT22;62604;49.432;8.680;2024-02-21T22:15:13;10.70;1.00
10231;DHT22;62604;49.432;8.680;2024-02-21T22:17:42;10.70;1.00